Time;durP1;ratioP1;P1;durP2;ratioP2;P2;SDS_P1;SDS_P2;PMS_P1;PMS_P2;Temp;Humidity;BMP_temperature;BMP_pressure;BME280_temperature;BME280_humidity;BME280_pressure;Samples;Min_cycle;Max_cycle;Signal;HPM_P1;HPM_P2
2024/02/14 00:00:13;;;;;;;19.92;14.75;;;25.40;99.90;;;;;;5002973;28;20114;-64
2024/02/14 00:02:44;;;;;;;20.08;14.38;;;25.40;99.90;;;;;;5001248;28;21468;-63
2024/02/14 00:05:10;;;;;;;20.70;14.55;;;25.40;99.90;;;;;;5012024;28;20053;-63
2024/02/14 00:07:37;;;;;;;18.75;14.70;;;;;;;;;;5013479;28;20014;-63
2024/02/14 00:10:05;;;;;;;19.98;14.30;;;;;;;;;;5013167;28;20037;-64
2024/02/14 00:12:31;;;;;;;23.08;14.57;;;;;;;;;;5009883;28;20065;-63
2024/02/14 00:14:57;;;;;;;21.38;14.20;;;;;;;;;;5013816;28;20055;-63
2024/02/14 00:17:24;;;;;;;18.33;13.68;;;;;;;;;;5010973;28;20488;-63
2024/02/14 00:19:50;;;;;;;20.48;14.27;;;;;;;;;;5006827;28;20488;-64
2024/02/14 00:22:16;;;;;;;20.52;14.23;;;;;;;;;;5006213;28;20037;-63
2024/02/14 00:24:42;;;;;;;18.08;13.57;;;;;;;;;;5006874;28;20050;-63
2024/02/14 00:27:08;;;;;;;20.88;14.93;;;;;;;;;;5012829;28;20026;-63
2024/02/14 00:29:34;;;;;;;17.73;13.80;;;;;;;;;;5014580;28;20038;-63
2024/02/14 00:32:01;;;;;;;18.88;13.95;;;;;;;;;;5003167;28;20030;-63
2024/02/14 00:34:27;;;;;;;18.80;13.57;;;;;;;;;;5012706;28;20135;-63
2024/02/14 00:36:53;;;;;;;20.88;14.20;;;;;;;;;;5008245;28;20106;-63
2024/02/14 00:39:19;;;;;;;20.05;14.32;;;;;;;;;;5005832;28;20057;-63
2024/02/14 00:41:47;;;;;;;21.55;14.65;;;;;;;;;;5012196;28;20507;-63
2024/02/14 00:44:16;;;;;;;20.88;13.85;;;;;;;;;;5011160;28;20100;-63
2024/02/14 00:46:42;;;;;;;17.20;13.52;;;;;;;;;;5024742;28;20033;-63
2024/02/14 00:49:08;;;;;;;18.83;14.10;;;;;;;;;;5012152;28;20129;-63
2024/02/14 00:51:34;;;;;;;20.38;14.20;;;;;;;;;;5009425;28;20476;-63
2024/02/14 00:54:00;;;;;;;21.52;13.40;;;;;;;;;;5010880;28;20101;-63
2024/02/14 00:56:26;;;;;;;19.38;13.93;;;;;;;;;;5013957;28;20057;-63
2024/02/14 00:58:52;;;;;;;18.40;13.82;;;;;;;;;;5012008;28;20368;-63
2024/02/14 01:01:18;;;;;;;22.73;14.20;;;;;;;;;;5006643;28;20428;-63
2024/02/14 01:03:45;;;;;;;16.65;13.15;;;;;;;;;;5011581;28;20038;-65
2024/02/14 01:06:11;;;;;;;20.17;13.35;;;;;;;;;;5005274;28;20017;-63
2024/02/14 01:08:37;;;;;;;18.08;12.88;;;;;;;;;;5011977;28;20391;-63
2024/02/14 01:11:04;;;;;;;20.75;13.98;;;;;;;;;;5010376;28;20120;-63
2024/02/14 01:13:30;;;;;;;21.73;14.65;;;;;;;;;;5012121;28;20037;-64
2024/02/14 01:15:56;;;;;;;19.13;14.18;;;;;;;;;;5009532;28;20026;-63
2024/02/14 01:18:22;;;;;;;19.20;13.23;;;;;;;;;;5002239;28;20022;-63
2024/02/14 01:20:48;;;;;;;18.02;13.63;;;;;;;;;;5008958;28;20036;-63
2024/02/14 01:23:14;;;;;;;17.95;13.07;;;;;;;;;;5008482;28;20068;-64
2024/02/14 01:25:40;;;;;;;22.23;14.05;;;;;;;;;;5005644;28;20396;-63
2024/02/14 01:28:08;;;;;;;20.40;13.68;;;;;;;;;;5010437;28;20395;-63
2024/02/14 01:30:35;;;;;;;16.58;12.90;;;;;;;;;;5009450;28;20052;-63
2024/02/14 01:33:03;;;;;;;20.27;14.43;;;;;;;;;;5009616;28;20024;-63
2024/02/14 01:35:29;;;;;;;25.30;13.95;;;;;;;;;;5009142;28;20568;-63
2024/02/14 01:37:55;;;;;;;20.83;14.15;;;;;;;;;;5011057;28;20028;-63
2024/02/14 01:40:22;;;;;;;19.70;13.73;;;;;;;;;;5013282;28;20034;-63
2024/02/14 01:42:47;;;;;;;17.70;12.60;;;;;;;;;;5013284;28;20034;-63
2024/02/14 01:45:13;;;;;;;18.08;12.18;;;;;;;;;;5004844;28;20037;-63
2024/02/14 01:47:41;;;;;;;17.00;12.65;;;;;;;;;;5010811;28;20026;-63
2024/02/14 01:50:09;;;;;;;21.33;13.60;;;;;;;;;;5001383;28;20364;-63
2024/02/14 01:52:35;;;;;;;17.80;13.30;;;;;;;;;;5003017;28;20064;-63
2024/02/14 01:55:02;;;;;;;17.35;12.93;;;;;;;;;;5010397;28;20021;-62
2024/02/14 01:57:29;;;;;;;19.65;13.25;;;;;;;;;;5006805;28;20042;-63
2024/02/14 01:59:55;;;;;;;18.20;13.52;;;;;;;;;;5012932;28;20029;-63
2024/02/14 02:02:21;;;;;;;19.30;13.93;;;;;;;;;;5012564;28;20033;-63
2024/02/14 02:04:47;;;;;;;15.15;12.43;;;;;;;;;;5019246;28;20031;-62
2024/02/14 02:07:13;;;;;;;18.42;12.63;;;;;;;;;;5004383;28;20038;-63
2024/02/14 02:09:39;;;;;;;17.10;12.57;;;;;;;;;;4997918;28;20027;-63
2024/02/14 02:12:07;;;;;;;19.20;14.07;;;;;;;;;;5027200;28;20026;-63
2024/02/14 02:14:33;;;;;;;16.42;11.82;;;;;;;;;;5005678;28;20061;-62
2024/02/14 02:17:00;;;;;;;19.45;12.13;;;;;;;;;;5010239;28;20030;-63
2024/02/14 02:19:26;;;;;;;17.15;12.60;;;;;;;;;;5006042;28;20567;-63
2024/02/14 02:21:55;;;;;;;17.45;12.90;;;;;;;;;;5000633;28;20037;-63
2024/02/14 02:24:21;;;;;;;16.27;12.60;;;;;;;;;;4995670;28;20046;-62
2024/02/14 02:26:47;;;;;;;18.15;12.85;;;;;;;;;;5012023;28;20026;-63
2024/02/14 02:29:13;;;;;;;17.40;12.50;;;;;;;;;;5007010;28;20037;-63
2024/02/14 02:31:39;;;;;;;18.73;12.25;;;;;;;;;;5012750;28;20036;-63
2024/02/14 02:34:04;;;;;;;20.65;13.65;;;;;;;;;;5007401;28;20037;-63
2024/02/14 02:36:30;;;;;;;18.20;12.35;;;;;;;;;;5012314;28;20361;-63
2024/02/14 02:38:57;;;;;;;16.92;12.35;;;;;;;;;;5012126;28;20034;-63
2024/02/14 02:41:24;;;;;;;19.48;13.70;;;;;;;;;;5007487;28;20486;-63
2024/02/14 02:43:50;;;;;;;17.15;12.95;;;;;;;;;;5001874;28;20069;-63
2024/02/14 02:46:16;;;;;;;18.92;12.30;;;;;;;;;;5011086;28;20022;-63
2024/02/14 02:48:42;;;;;;;18.13;13.65;;;;;;;;;;5002805;28;20042;-63
2024/02/14 02:51:09;;;;;;;19.30;13.98;;;;;;;;;;5007379;28;20391;-63
2024/02/14 02:53:35;;;;;;;19.75;13.23;;;;;;;;;;5008217;28;20026;-63
2024/02/14 02:56:01;;;;;;;19.02;13.52;;;;;;;;;;5010651;28;20471;-63
2024/02/14 02:58:27;;;;;;;19.92;13.20;;;;;;;;;;5009964;28;20041;-63
2024/02/14 03:00:55;;;;;;;19.45;13.07;;;;;;;;;;5011795;28;20432;-63
2024/02/14 03:03:21;;;;;;;18.58;13.43;;;;;;;;;;5009015;28;20053;-63
2024/02/14 03:05:48;;;;;;;21.30;14.00;;;;;;;;;;5009023;28;20034;-63
2024/02/14 03:08:15;;;;;;;17.55;12.88;;;;;;;;;;5009343;28;20054;-64
2024/02/14 03:10:42;;;;;;;22.55;14.23;;;;;;;;;;5011442;28;20022;-63
2024/02/14 03:13:14;;;;;;;21.65;14.50;;;;;;;;;;5010298;28;20356;-63
2024/02/14 03:15:40;;;;;;;22.92;14.07;;;;;;;;;;5000521;28;20077;-63
2024/02/14 03:18:09;;;;;;;17.42;13.95;;;;;;;;;;5007585;28;20395;-64
2024/02/14 03:20:35;;;;;;;18.75;14.50;;;;;;;;;;5008865;28;20480;-63
2024/02/14 03:23:03;;;;;;;20.30;13.77;;;;;;;;;;5008021;28;20045;-64
2024/02/14 03:25:29;;;;;;;19.00;13.57;;;;;;;;;;5009087;28;20400;-63
2024/02/14 03:27:57;;;;;;;20.73;15.15;;;;;;;;;;5009239;28;20030;-62
2024/02/14 03:30:23;;;;;;;19.20;13.38;;;;;;;;;;5011224;28;20029;-63
2024/02/14 03:32:55;;;;;;;16.10;13.30;;;;;;;;;;5006370;28;20021;-63
2024/02/14 03:35:21;;;;;;;17.77;14.02;;;;;;;;;;5009393;28;20056;-62
2024/02/14 03:37:48;;;;;;;17.75;14.05;;;;;;;;;;5011046;28;20030;-63
2024/02/14 03:40:14;;;;;;;22.13;13.88;;;;;;;;;;5006270;28;20503;-63
2024/02/14 03:42:40;;;;;;;20.17;14.02;;;;;;;;;;5010848;28;20018;-62
2024/02/14 03:45:07;;;;;;;20.30;14.57;;;;;;;;;;5007251;28;20031;-62
2024/02/14 03:47:33;;;;;;;20.02;14.23;;;;;;;;;;5010917;28;20029;-62
2024/02/14 03:50:00;;;;;;;20.02;14.45;;;;;;;;;;5010715;28;20041;-62
2024/02/14 03:52:26;;;;;;;19.48;14.55;;;;;;;;;;5008856;28;20045;-63
2024/02/14 03:54:52;;;;;;;19.85;13.65;;;;;;;;;;5010069;28;20057;-63
2024/02/14 03:57:18;;;;;;;19.88;15.25;;;;;;;;;;5007361;28;20112;-63
2024/02/14 03:59:47;;;;;;;20.38;15.55;;;;;;;;;;5006087;28;20033;-63
2024/02/14 04:02:13;;;;;;;21.35;14.35;;;;;;;;;;4999214;28;20137;-63
2024/02/14 04:04:42;;;;;;;19.95;15.60;;;;;;;;;;5009180;28;20061;-63
2024/02/14 04:07:08;;;;;;;21.35;14.18;;;;;;;;;;5005783;28;20503;-63
2024/02/14 04:09:34;;;;;;;20.52;14.77;;;;;;;;;;5011122;28;20026;-63
2024/02/14 04:12:01;;;;;;;21.63;15.23;;;;;;;;;;5002047;28;20037;-62
2024/02/14 04:14:27;;;;;;;18.70;14.93;;;;;;;;;;5009798;28;20500;-63
2024/02/14 04:16:53;;;;;;;22.23;15.10;;;;;;;;;;5004133;28;20026;-63
2024/02/14 04:19:19;;;;;;;20.30;15.02;;;;;;;;;;5010135;28;20045;-63
2024/02/14 04:21:45;;;;;;;18.20;13.13;;;;;;;;;;5009405;28;20034;-64
2024/02/14 04:24:10;;;;;;;18.25;12.90;;;;;;;;;;5006420;28;20188;-63
2024/02/14 04:26:36;;;;;;;18.80;12.80;;;;;;;;;;5006987;28;20025;-63
2024/02/14 04:29:03;;;;;;;15.90;12.77;;;;;;;;;;5005779;28;20046;-63
2024/02/14 04:31:31;;;;;;;22.58;13.38;;;;;;;;;;5004566;28;20030;-63
2024/02/14 04:33:58;;;;;;;20.42;13.25;;;;;;;;;;5013559;28;20368;-63
2024/02/14 04:36:24;;;;;;;18.10;13.05;;;;;;;;;;5013052;28;20037;-62
2024/02/14 04:38:51;;;;;;;17.80;14.18;;;;;;;;;;5012252;28;20038;-63
2024/02/14 04:41:17;;;;;;;16.92;12.90;;;;;;;;;;5011700;28;20030;-63
2024/02/14 04:43:43;;;;;;;21.05;13.77;;;;;;;;;;5012445;28;20545;-63
2024/02/14 04:46:09;;;;;;;17.92;13.10;;;;;;;;;;5012899;28;20030;-63
2024/02/14 04:48:36;;;;;;;17.80;13.23;;;;;;;;;;5011146;28;20080;-63
2024/02/14 04:51:02;;;;;;;20.27;13.23;;;;;;;;;;5020128;28;20439;-62
2024/02/14 04:53:28;;;;;;;17.98;12.10;;;;;;;;;;5013547;28;20361;-63
2024/02/14 04:55:54;;;;;;;20.30;12.60;;;;;;;;;;5004007;28;20066;-62
2024/02/14 04:58:21;;;;;;;18.52;12.93;;;;;;;;;;5008763;28;20065;-63
2024/02/14 05:00:47;;;;;;;19.13;13.15;;;;;;;;;;5013041;28;20040;-63
2024/02/14 05:03:13;;;;;;;19.80;13.40;;;;;;;;;;5013800;28;20488;-63
2024/02/14 05:05:39;;;;;;;19.17;13.13;;;;;;;;;;5000222;28;20041;-62
2024/02/14 05:08:05;;;;;;;16.05;13.05;;;;;;;;;;5013213;28;20112;-62
2024/02/14 05:10:34;;;;;;;19.83;12.95;;;;;;;;;;5001703;28;20416;-62
2024/02/14 05:13:01;;;;;;;18.45;14.02;;;;;;;;;;5023230;28;20026;-62
2024/02/14 05:15:27;;;;;;;16.50;13.30;;;;;;;;;;5011922;28;20030;-62
2024/02/14 05:17:53;;;;;;;19.60;13.35;;;;;;;;;;5003852;28;20107;-62
2024/02/14 05:20:19;;;;;;;17.90;13.63;;;;;;;;;;5009838;28;20022;-63
2024/02/14 05:22:45;;;;;;;21.58;13.82;;;;;;;;;;5001470;28;20093;-62
2024/02/14 05:25:11;;;;;;;18.27;12.95;;;;;;;;;;5010318;28;20125;-62
2024/02/14 05:27:37;;;;;;;20.45;13.13;;;;;;;;;;5004520;28;20061;-62
2024/02/14 05:30:06;;;;;;;17.75;12.25;;;;;;;;;;5013366;28;20057;-62
2024/02/14 05:32:33;;;;;;;16.85;12.18;;;;;;;;;;5008313;28;20419;-63
2024/02/14 05:34:59;;;;;;;16.45;12.50;;;;;;;;;;5007204;28;20032;-63
2024/02/14 05:37:28;;;;;;;17.45;12.18;;;;;;;;;;5012838;28;20025;-62
2024/02/14 05:39:55;;;;;;;16.90;12.68;;;;;;;;;;5003464;28;20109;-63
2024/02/14 05:42:21;;;;;;;18.80;12.93;;;;;;;;;;5011012;28;20116;-63
2024/02/14 05:44:47;;;;;;;16.20;11.48;;;;;;;;;;5002918;28;20042;-63
2024/02/14 05:47:13;;;;;;;19.77;11.65;;;;;;;;;;4996600;28;20030;-63
2024/02/14 05:49:39;;;;;;;14.82;11.45;;;;;;;;;;5012866;28;20030;-63
2024/02/14 05:52:06;;;;;;;15.55;10.45;;;;;;;;;;5002416;28;20480;-63
2024/02/14 05:54:32;;;;;;;16.58;12.02;;;;;;;;;;5005996;28;20034;-63
2024/02/14 05:56:58;;;;;;;14.02;11.88;;;;;;;;;;5009476;28;20072;-63
2024/02/14 05:59:24;;;;;;;17.17;11.82;;;;;;;;;;5005838;28;20116;-64
2024/02/14 06:01:50;;;;;;;17.00;11.63;;;;;;;;;;5004827;28;20049;-67
2024/02/14 06:04:16;;;;;;;14.80;10.70;;;;;;;;;;5006964;28;20488;-64
2024/02/14 06:06:42;;;;;;;17.42;11.38;;;;;;;;;;5007572;28;20036;-63
2024/02/14 06:09:11;;;;;;;15.27;11.32;;;;;;;;;;5010131;28;20109;-63
2024/02/14 06:11:42;;;;;;;17.05;11.23;;;;;;;;;;5009236;28;20034;-63
2024/02/14 06:14:08;;;;;;;19.13;11.93;;;;;;;;;;5012648;28;20061;-64
2024/02/14 06:16:34;;;;;;;16.05;10.82;;;;;;;;;;5010371;28;20487;-63
2024/02/14 06:19:00;;;;;;;14.30;10.70;;;;;;;;;;5011648;28;20040;-63
2024/02/14 06:21:26;;;;;;;16.30;11.15;;;;;;;;;;5009460;28;20034;-63
2024/02/14 06:23:53;;;;;;;17.08;11.45;;;;;;;;;;5012302;28;20528;-64
2024/02/14 06:26:19;;;;;;;18.13;11.32;;;;;;;;;;5008171;28;20069;-64
2024/02/14 06:28:45;;;;;;;18.10;11.52;;;;;;;;;;5006715;28;20033;-64
2024/02/14 06:31:12;;;;;;;16.13;11.50;;;;;;;;;;5009262;28;20022;-64
2024/02/14 06:33:38;;;;;;;18.45;13.48;;;;;;;;;;5015403;28;20030;-63
2024/02/14 06:36:04;;;;;;;22.13;13.63;;;;;;;;;;5009695;28;20030;-63
2024/02/14 06:38:31;;;;;;;21.50;14.15;;;;;;;;;;5011725;28;20105;-63
2024/02/14 06:40:57;;;;;;;18.98;13.05;;;;;;;;;;5012095;28;20367;-63
2024/02/14 06:43:23;;;;;;;16.85;12.88;;;;;;;;;;5003482;28;20042;-63
2024/02/14 06:45:49;;;;;;;22.58;14.52;;;;;;;;;;5001877;28;20028;-63
2024/02/14 06:48:15;;;;;;;18.48;13.50;;;;;;;;;;5010476;28;20037;-63
2024/02/14 06:50:42;;;;;;;21.42;13.68;;;;;;;;;;5002226;28;20022;-63
2024/02/14 06:53:08;;;;;;;19.88;13.65;;;;;;;;;;5024101;28;20022;-63
2024/02/14 06:55:34;;;;;;;20.33;14.35;;;;;;;;;;5011649;28;20132;-63
2024/02/14 06:58:00;;;;;;;22.42;13.45;;;;;;;;;;5012226;28;20087;-63
2024/02/14 07:00:28;;;;;;;21.27;14.43;;;;;;;;;;5011930;28;20084;-63
2024/02/14 07:02:54;;;;;;;19.63;13.90;;;;;;;;;;5011731;28;20044;-63
2024/02/14 07:05:20;;;;;;;20.75;13.20;;;;;;;;;;5011767;28;20033;-63
2024/02/14 07:07:46;;;;;;;18.52;14.02;;;;;;;;;;5012223;28;20579;-63
2024/02/14 07:10:12;;;;;;;17.70;14.43;;;;;;;;;;5011719;28;20029;-63
2024/02/14 07:12:38;;;;;;;18.38;13.40;;;;;;;;;;5014808;28;20036;-63
2024/02/14 07:15:05;;;;;;;21.70;14.30;;;;;;;;;;5012800;28;20026;-63
2024/02/14 07:17:31;;;;;;;23.65;14.95;;;;;;;;;;5002603;28;20021;-63
2024/02/14 07:19:57;;;;;;;22.40;13.60;;;;;;;;;;5008305;28;20018;-62
2024/02/14 07:22:23;;;;;;;22.13;13.70;;;;;;;;;;5002270;28;20026;-63
2024/02/14 07:24:49;;;;;;;22.45;14.90;;;;;;;;;;5008409;28;20049;-63
2024/02/14 07:27:18;;;;;;;21.90;14.45;;;;;;;;;;5006798;28;20042;-62
2024/02/14 07:29:44;;;;;;;17.80;14.23;;;;;;;;;;5010671;28;20097;-62
2024/02/14 07:32:10;;;;;;;19.27;14.75;;;;;;;;;;5009370;28;20018;-63
2024/02/14 07:34:40;;;;;;;21.08;13.15;;;;;;;;;;5009881;28;20080;-63
2024/02/14 07:37:06;;;;;;;24.77;15.65;;;;;;;;;;5003262;28;20018;-63
2024/02/14 07:39:32;;;;;;;18.90;14.88;;;;;;;;;;5009439;28;20064;-63
2024/02/14 07:41:58;;;;;;;23.00;14.75;;;;;;;;;;5007412;28;20022;-63
2024/02/14 07:44:24;;;;;;;19.00;13.50;;;;;;;;;;5008696;28;20038;-63
2024/02/14 07:46:50;;;;;;;22.60;14.30;;;;;;;;;;5008144;28;20033;-63
2024/02/14 07:49:17;;;;;;;20.85;13.88;;;;;;;;;;5002934;28;20029;-63
2024/02/14 07:51:43;;;;;;;23.70;14.05;;;;;;;;;;5010514;28;20029;-63
2024/02/14 07:54:09;;;;;;;21.17;12.27;;;;;;;;;;5010915;28;20026;-63
2024/02/14 07:56:35;;;;;;;20.00;13.13;;;;;;;;;;5003162;28;20120;-64
2024/02/14 07:59:01;;;;;;;19.90;13.70;;;;;;;;;;5008677;28;20480;-63
2024/02/14 08:01:27;;;;;;;18.05;12.65;;;;;;;;;;5004849;28;20052;-63
2024/02/14 08:03:53;;;;;;;17.27;13.50;;;;;;;;;;5010771;28;20048;-63
2024/02/14 08:06:18;;;;;;;19.15;13.25;;;;;;;;;;4996388;28;20026;-61
2024/02/14 08:08:44;;;;;;;19.30;13.77;;;;;;;;;;5006849;28;20030;-61
2024/02/14 08:11:10;;;;;;;21.23;13.35;;;;;;;;;;5008856;28;20383;-68
2024/02/14 08:13:39;;;;;;;18.08;13.73;;;;;;;;;;5013112;28;20030;-64
2024/02/14 08:16:05;;;;;;;20.20;13.73;;;;;;;;;;5015117;28;20045;-63
2024/02/14 08:18:31;;;;;;;19.80;13.23;;;;;;;;;;5005804;28;20380;-65
2024/02/14 08:20:57;;;;;;;20.98;12.95;;;;;;;;;;5012594;28;20076;-64
2024/02/14 08:23:23;;;;;;;19.15;12.75;;;;;;;;;;5001967;28;20073;-65
2024/02/14 08:25:49;;;;;;;16.50;12.32;;;;;;;;;;5009002;28;20103;-64
2024/02/14 08:28:17;;;;;;;20.52;13.60;;;;;;;;;;5004949;28;20042;-70
2024/02/14 08:30:43;;;;;;;20.25;13.73;;;;;;;;;;5008399;28;20030;-72
2024/02/14 08:33:10;;;;;;;23.30;14.63;;;;;;;;;;5011796;28;20036;-71
2024/02/14 08:35:36;;;;;;;24.80;13.95;;;;;;;;;;5014109;28;20028;-68
2024/02/14 08:38:06;;;;;;;25.95;14.25;;;;;;;;;;5015675;28;20080;-64
2024/02/14 08:40:32;;;;;;;18.15;13.30;;;;;;;;;;5009939;28;20030;-70
2024/02/14 08:42:59;;;;;;;24.52;14.63;;;;;;;;;;5017547;28;20037;-61
2024/02/14 08:45:25;;;;;;;21.00;15.13;;;;;;;;;;5013450;28;20479;-66
2024/02/14 08:47:51;;;;;;;22.10;15.43;;;;;;;;;;5008388;28;20049;-72
2024/02/14 08:50:17;;;;;;;19.60;13.32;;;;;;;;;;5014211;28;20026;-72
2024/02/14 08:52:43;;;;;;;22.45;14.63;;;;;;;;;;5010881;28;20029;-66
2024/02/14 08:55:16;;;;;;;21.30;15.40;;;;;;;;;;5014168;28;20025;-60
2024/02/14 08:57:42;;;;;;;21.05;14.80;;;;;;;;;;5011567;28;20018;-66
2024/02/14 09:00:10;;;;;;;21.52;14.82;;;;;;;;;;5009546;28;20088;-64
2024/02/14 09:02:36;;;;;;;23.40;15.07;;;;;;;;;;5006979;28;20108;-66
2024/02/14 09:05:04;;;;;;;22.33;14.63;;;;;;;;;;5012451;28;20036;-68
2024/02/14 09:07:31;;;;;;;23.95;14.60;;;;;;;;;;5010693;28;20022;-67
2024/02/14 09:09:58;;;;;;;20.52;14.27;;;;;;;;;;5011832;28;20032;-68
2024/02/14 09:12:24;;;;;;;23.70;13.70;;;;;;;;;;5004264;28;20065;-69
2024/02/14 09:14:49;;;;;;;23.20;14.32;;;;;;;;;;5006347;28;20137;-65
2024/02/14 09:17:16;;;;;;;23.15;13.57;;;;;;;;;;5006285;28;20026;-68
2024/02/14 09:19:42;;;;;;;21.60;13.02;;;;;;;;;;5005259;28;20055;-60
2024/02/14 09:22:08;;;;;;;18.63;11.90;;;;;;;;;;5011219;28;20018;-61
2024/02/14 09:24:34;;;;;;;20.77;11.90;;;;;;;;;;5010744;28;20501;-60
2024/02/14 09:27:02;;;;;;;16.55;11.77;;;;;;;;;;5007148;28;20104;-65
2024/02/14 09:29:28;;;;;;;19.25;12.68;;;;;;;;;;5014757;28;20101;-56
2024/02/14 09:31:54;;;;;;;21.60;13.10;;;;;;;;;;5012509;28;20145;-57
2024/02/14 09:34:20;;;;;;;18.45;13.10;;;;;;;;;;5012479;28;20101;-54
2024/02/14 09:36:49;;;;;;;22.30;12.43;;;;;;;;;;5009333;28;20166;-55
2024/02/14 09:42:22;;;;;;;18.90;12.43;;;;;;;;;;5006007;28;20105;-56
2024/02/14 09:44:50;;;;;;;16.67;11.90;;;;;;;;;;5011562;28;20073;-59
2024/02/14 09:47:16;;;;;;;17.67;11.63;;;;;;;;;;4995653;28;20460;-64
2024/02/14 09:49:42;;;;;;;16.38;11.40;;;;;;;;;;5022214;28;20113;-62
2024/02/14 09:52:09;;;;;;;17.52;10.80;;;;;;;;;;5011952;28;20060;-61
2024/02/14 09:54:38;;;;;;;23.08;11.50;;;;;;;;;;5025020;28;20482;-60
2024/02/14 09:57:05;;;;;;;20.40;11.23;;;;;;;;;;5021829;28;20046;-60
2024/02/14 09:59:31;;;;;;;18.38;12.27;;;;;;;;;;5023073;28;20030;-63
2024/02/14 10:01:57;;;;;;;17.48;11.75;;;;;;;;;;5018129;28;20436;-61
2024/02/14 10:04:24;;;;;;;18.02;13.30;;;;;;;;;;5009094;28;20049;-65
2024/02/14 10:06:50;;;;;;;24.55;11.90;;;;;;;;;;5011174;28;20018;-61
2024/02/14 10:09:22;;;;;;;17.08;12.80;;;;;;;;;;5002218;28;20041;-67
2024/02/14 10:11:49;;;;;;;20.10;14.15;;;;;;;;;;5008679;28;20088;-64
2024/02/14 10:14:15;;;;;;;21.33;14.32;;;;;;;;;;5013150;28;20031;-64
2024/02/14 10:16:45;;;;;;;24.45;13.20;;;;;;;;;;4997320;28;20054;-64
2024/02/14 10:19:18;;;;;;;19.63;13.30;;;;;;;;;;5006598;28;20407;-49
2024/02/14 10:21:44;;;;;;;17.65;13.68;;;;;;;;;;5006642;28;20506;-63
2024/02/14 10:24:14;;;;;;;20.27;13.02;;;;;;;;;;5006508;28;20134;-70
2024/02/14 10:26:42;;;;;;;17.30;13.15;;;;;;;;;;4998388;28;20077;-72
2024/02/14 10:29:10;;;;;;;20.15;14.10;;;;;;;;;;5007543;28;20026;-65
2024/02/14 10:31:36;;;;;;;21.67;13.02;;;;;;;;;;5010534;28;20376;-60
2024/02/14 10:34:05;;;;;;;19.45;13.48;;;;;;;;;;5001418;28;20032;-65
2024/02/14 10:36:34;;;;;;;16.73;13.43;;;;;;;;;;5004236;28;20046;-69
2024/02/14 10:39:03;;;;;;;16.75;12.90;;;;;;;;;;4994482;28;20071;-64
2024/02/14 10:41:34;;;;;;;15.90;11.77;;;;;;;;;;5010790;28;20031;-63
2024/02/14 10:44:01;;;;;;;15.40;11.10;;;;;;;;;;5008046;28;20045;-62
2024/02/14 10:46:31;;;;;;;14.68;10.95;;;;;;;;;;5005830;28;20116;-58
2024/02/14 10:48:59;;;;;;;17.38;11.90;;;;;;;;;;5004126;28;20109;-57
2024/02/14 10:51:26;;;;;;;16.90;11.38;;;;;;;;;;5016856;28;20026;-58
2024/02/14 10:53:52;;;;;;;17.88;11.13;;;;;;;;;;4999634;28;20037;-59
2024/02/14 10:56:22;;;;;;;17.60;11.77;;;;;;;;;;5009265;28;20047;-58
2024/02/14 10:58:51;;;;;;;18.48;12.20;;;;;;;;;;5008057;28;20108;-55
2024/02/14 11:01:17;;;;;;;17.27;13.00;;;;;;;;;;5008162;28;20029;-57
2024/02/14 11:03:44;;;;;;;18.88;12.70;;;;;;;;;;5012717;28;20144;-57
2024/02/14 11:06:16;;;;;;;20.00;12.35;;;;;;;;;;5014809;28;20113;-58
2024/02/14 11:08:42;;;;;;;17.65;12.80;;;;;;;;;;5007917;28;20033;-63
2024/02/14 11:11:08;;;;;;;21.60;12.75;;;;;;;;;;5003309;28;20029;-58
2024/02/14 11:13:35;;;;;;;19.30;12.32;;;;;;;;;;5007534;28;20053;-65
2024/02/14 11:16:04;;;;;;;21.88;13.45;;;;;;;;;;5010477;28;20030;-62
2024/02/14 11:18:30;;;;;;;21.88;13.27;;;;;;;;;;5015860;28;20026;-71
2024/02/14 11:20:57;;;;;;;17.60;12.93;;;;;;;;;;5008543;28;20080;-71
2024/02/14 11:23:24;;;;;;;19.65;14.10;;;;;;;;;;5005128;28;20033;-65
2024/02/14 11:25:51;;;;;;;20.83;14.15;;;;;;;;;;5003958;28;20029;-66
2024/02/14 11:28:20;;;;;;;19.90;13.90;;;;;;;;;;5003987;28;20033;-58
2024/02/14 11:30:46;;;;;;;20.80;14.15;;;;;;;;;;4997509;28;20121;-70
2024/02/14 11:33:15;;;;;;;18.52;14.30;;;;;;;;;;4992201;28;20030;-70
2024/02/14 11:35:42;;;;;;;21.02;15.00;;;;;;;;;;4992361;28;20441;-70
2024/02/14 11:38:09;;;;;;;23.05;15.80;;;;;;;;;;4992358;28;20031;-70
2024/02/14 11:40:35;;;;;;;23.70;15.65;;;;;;;;;;4992311;28;20030;-71
2024/02/14 11:43:01;;;;;;;25.08;16.42;;;;;;;;;;4995627;28;20065;-71
2024/02/14 11:45:30;;;;;;;23.35;16.95;;;;;;;;;;4996738;28;20030;-72
2024/02/14 11:48:01;;;;;;;22.67;15.27;;;;;;;;;;4996401;28;20033;-71
2024/02/14 11:50:28;;;;;;;22.17;17.00;;;;;;;;;;4996347;28;20037;-71
2024/02/14 11:52:54;;;;;;;22.83;16.98;;;;;;;;;;4996333;28;20515;-70
2024/02/14 11:55:27;;;;;;;21.92;15.57;;;;;;;;;;4996755;28;20057;-70
2024/02/14 11:57:53;;;;;;;21.52;16.13;;;;;;;;;;4996421;28;20022;-70
2024/02/14 12:00:20;;;;;;;25.58;16.17;;;;;;;;;;4996600;28;20030;-70
2024/02/14 12:02:46;;;;;;;26.67;16.90;;;;;;;;;;5010869;28;20029;-70
2024/02/14 12:05:14;;;;;;;23.77;16.60;;;;;;;;;;4996243;28;20105;-70
2024/02/14 12:07:40;;;;;;;19.67;15.48;;;;;;;;;;4996080;28;20054;-70
2024/02/14 12:10:06;;;;;;;22.35;16.48;;;;;;;;;;4996202;28;20038;-70
2024/02/14 12:12:32;;;;;;;25.27;17.80;;;;;;;;;;4995535;28;20104;-70
2024/02/14 12:14:58;;;;;;;22.50;16.73;;;;;;;;;;4995640;28;20468;-69
2024/02/14 12:17:24;;;;;;;24.25;16.83;;;;;;;;;;4994029;28;20112;-69
2024/02/14 12:19:53;;;;;;;18.73;16.02;;;;;;;;;;4995094;28;20030;-70
2024/02/14 12:22:19;;;;;;;22.35;15.63;;;;;;;;;;4994652;28;20026;-69
2024/02/14 12:24:45;;;;;;;24.05;15.43;;;;;;;;;;4995239;28;20511;-69
2024/02/14 12:27:11;;;;;;;18.90;15.00;;;;;;;;;;5005972;28;20116;-69
2024/02/14 12:29:38;;;;;;;18.92;14.75;;;;;;;;;;5014852;28;20101;-69
2024/02/14 12:32:05;;;;;;;18.52;14.82;;;;;;;;;;5014915;28;20030;-69
2024/02/14 12:34:32;;;;;;;19.90;14.40;;;;;;;;;;5014798;28;20041;-69
2024/02/14 12:37:01;;;;;;;16.98;13.88;;;;;;;;;;5014986;28;20026;-69
2024/02/14 12:39:27;;;;;;;19.38;13.48;;;;;;;;;;5014746;28;20364;-69
2024/02/14 12:41:54;;;;;;;21.73;14.88;;;;;;;;;;5014586;28;20117;-70
2024/02/14 12:44:20;;;;;;;21.55;14.35;;;;;;;;;;5029779;28;20045;-69
2024/02/14 12:46:46;;;;;;;18.55;13.48;;;;;;;;;;5014689;28;20084;-69
2024/02/14 12:49:13;;;;;;;19.48;13.93;;;;;;;;;;5015239;28;20034;-70
2024/02/14 12:51:39;;;;;;;18.40;12.85;;;;;;;;;;5014514;28;20380;-70
2024/02/14 12:54:07;;;;;;;19.13;13.25;;;;;;;;;;5013727;28;20030;-70
2024/02/14 12:56:33;;;;;;;16.38;11.10;;;;;;;;;;5014570;28;20033;-70
2024/02/14 12:58:59;;;;;;;19.73;11.50;;;;;;;;;;5029523;28;20448;-69
2024/02/14 13:01:26;;;;;;;17.52;11.38;;;;;;;;;;5014285;28;20443;-70
2024/02/14 13:03:52;;;;;;;15.93;12.05;;;;;;;;;;5014208;28;20107;-69
2024/02/14 13:06:18;;;;;;;20.05;12.07;;;;;;;;;;5029418;28;20018;-69
2024/02/14 13:08:44;;;;;;;16.50;11.02;;;;;;;;;;5010605;28;20450;-69
2024/02/14 13:11:10;;;;;;;18.92;10.90;;;;;;;;;;5006735;28;20452;-69
2024/02/14 13:13:36;;;;;;;12.32;9.80;;;;;;;;;;5001895;28;20041;-69
2024/02/14 13:16:02;;;;;;;13.38;9.38;;;;;;;;;;5005343;28;20133;-60
2024/02/14 13:18:28;;;;;;;15.00;9.10;;;;;;;;;;5005862;28;20057;-74
2024/02/14 13:20:59;;;;;;;14.80;9.70;;;;;;;;;;5007234;28;20073;-67
2024/02/14 13:23:25;;;;;;;17.48;10.77;;;;;;;;;;4999837;28;20030;-62
2024/02/14 13:25:51;;;;;;;14.95;9.52;;;;;;;;;;5008064;28;20065;-67
2024/02/14 13:28:18;;;;;;;14.23;9.80;;;;;;;;;;5007310;28;20026;-62
2024/02/14 13:30:46;;;;;;;13.40;10.25;;;;;;;;;;5006944;28;20030;-67
2024/02/14 13:33:12;;;;;;;14.98;10.75;;;;;;;;;;5009225;28;20045;-59
2024/02/14 13:35:39;;;;;;;11.80;10.05;;;;;;;;;;5009865;28;20022;-57
2024/02/14 13:38:05;;;;;;;14.50;11.18;;;;;;;;;;5007503;28;20372;-57
2024/02/14 13:40:31;;;;;;;14.88;9.45;;;;;;;;;;5011393;28;20026;-59
2024/02/14 13:42:58;;;;;;;14.90;10.48;;;;;;;;;;5002516;28;20034;-57
2024/02/14 13:45:24;;;;;;;15.15;10.45;;;;;;;;;;5002327;28;20037;-55
2024/02/14 13:47:51;;;;;;;13.02;10.23;;;;;;;;;;5021528;28;20041;-56
2024/02/14 13:50:17;;;;;;;14.93;10.02;;;;;;;;;;5000384;28;20369;-55
2024/02/14 13:52:44;;;;;;;13.48;11.00;;;;;;;;;;4997318;28;20049;-62
2024/02/14 13:55:10;;;;;;;15.57;11.63;;;;;;;;;;4998495;28;20026;-64
2024/02/14 13:57:39;;;;;;;17.02;10.35;;;;;;;;;;5009660;28;20032;-62
2024/02/14 14:00:06;;;;;;;15.25;10.80;;;;;;;;;;4994105;28;20435;-68
2024/02/14 14:02:32;;;;;;;16.23;11.30;;;;;;;;;;5001473;28;20034;-66
2024/02/14 14:04:58;;;;;;;12.70;10.70;;;;;;;;;;5003468;28;20066;-70
2024/02/14 14:07:24;;;;;;;16.58;12.50;;;;;;;;;;5008009;28;20542;-63
2024/02/14 14:09:50;;;;;;;15.50;11.35;;;;;;;;;;5007495;28;20049;-64
2024/02/14 14:12:16;;;;;;;16.75;12.07;;;;;;;;;;5005759;28;20404;-61
2024/02/14 14:14:42;;;;;;;15.93;11.95;;;;;;;;;;5007958;28;20022;-63